createdAt,value
2023-03-24T00:03:24.843Z,84.2
2023-03-24T00:09:17.643Z,84.9
2023-03-24T00:15:09.502Z,85.6
2023-03-24T00:21:01.239Z,86.3
2023-03-24T00:26:53.438Z,86.8
2023-03-24T00:32:45.176Z,88.2
2023-03-24T00:38:37.421Z,89.1
2023-03-24T00:44:30.646Z,89.4
2023-03-24T00:50:21.872Z,90.7
2023-03-24T00:56:14.790Z,91.7
2023-03-24T01:02:06.414Z,92.5
2023-03-24T01:07:59.214Z,93.4
2023-03-24T01:13:50.651Z,94.6
2023-03-24T01:19:42.616Z,94.8
2023-03-24T01:25:34.003Z,95.5
2023-03-24T01:31:27.193Z,95.3
2023-03-24T01:37:19.050Z,96.1
2023-03-24T01:43:11.229Z,96.7
2023-03-24T01:49:03.052Z,97.1
2023-03-24T01:54:54.852Z,97.5
2023-03-24T02:00:47.500Z,98.1
2023-03-24T02:06:39.520Z,98.1
2023-03-24T02:12:31.754Z,98.6
2023-03-24T02:18:24.102Z,99.6
2023-03-24T02:24:16.296Z,99.5
2023-03-24T02:30:08.192Z,98.7
2023-03-24T02:36:00.192Z,98.9
2023-03-24T02:41:52.544Z,98.3
2023-03-24T02:47:44.401Z,98
2023-03-24T02:53:36.907Z,97.5
2023-03-24T02:59:28.439Z,97.5
2023-03-24T03:05:19.187Z,97.4
2023-03-24T03:11:11.700Z,97.5
2023-03-24T03:17:04.052Z,97.5
2023-03-24T03:22:55.885Z,97.5
2023-03-24T03:28:48.530Z,97.1
2023-03-24T03:34:41.434Z,97
2023-03-24T03:40:33.253Z,97
2023-03-24T03:46:25.359Z,96.4
2023-03-24T03:52:17.456Z,96.1
2023-03-24T03:58:09.419Z,96
2023-03-24T04:04:00.873Z,93.3
2023-03-24T04:09:52.729Z,92.5
2023-03-24T04:15:43.871Z,91.8
2023-03-24T04:21:37.376Z,91.1
2023-03-24T04:27:31.841Z,91
2023-03-24T04:33:25.607Z,90.9
2023-03-24T04:39:17.435Z,90.8
2023-03-24T04:45:08.625Z,90.9
2023-03-24T04:50:59.995Z,90.4
2023-03-24T04:56:52.344Z,90.6
2023-03-24T05:02:44.965Z,90.4
2023-03-24T05:08:36.339Z,90.1
2023-03-24T05:14:28.148Z,90.4
2023-03-24T05:20:20.010Z,90.7
2023-03-24T05:26:11.503Z,90.4
2023-03-24T05:32:03.896Z,89.7
2023-03-24T05:37:55.559Z,89.5
2023-03-24T05:43:47.574Z,89
2023-03-24T05:49:39.827Z,89.3
2023-03-24T07:03:15.055Z,81.4
2023-03-24T07:09:12.659Z,80.7
2023-03-24T07:16:15.006Z,79.7
2023-03-24T07:22:08.314Z,79.7
2023-03-24T07:28:06.654Z,80.7
2023-03-24T07:34:05.386Z,80.9
2023-03-24T07:46:44.305Z,83.4
2023-03-24T07:52:51.192Z,83.3
2023-03-24T07:59:00.448Z,83.2
2023-03-24T08:04:59.786Z,83.1
2023-03-24T08:11:05.473Z,81.3
2023-03-24T08:17:15.532Z,79.6
2023-03-24T08:23:23.758Z,79.8
2023-03-24T08:29:33.834Z,79.6
2023-03-24T08:35:47.494Z,79.2
2023-03-24T08:42:00.490Z,77.3
2023-03-24T09:54:01.909Z,68.2
2023-03-24T10:05:53.384Z,65.7
2023-03-24T10:11:53.425Z,64.7
2023-03-24T10:53:30.182Z,56.7
2023-03-24T11:22:51.053Z,54.2
2023-03-24T11:35:41.564Z,53.9
2023-03-24T11:41:54.651Z,53.2
2023-03-24T11:47:47.370Z,53.1
2023-03-24T11:53:45.861Z,52.2
2023-03-24T11:59:41.451Z,50.2
2023-03-24T12:05:36.382Z,50.7
2023-03-24T12:11:30.209Z,49.2
2023-03-24T12:17:22.880Z,49.4
2023-03-24T12:23:16.025Z,50
2023-03-24T12:29:10.143Z,49.6
2023-03-24T12:35:03.813Z,49.4
2023-03-24T12:40:58.165Z,49.4
2023-03-24T12:46:54.256Z,48.5
2023-03-24T12:53:04.871Z,48.3
2023-03-24T12:59:05.618Z,48.4
2023-03-24T13:05:00.217Z,49.7
2023-03-24T13:10:53.146Z,49.2
2023-03-24T13:16:48.337Z,49.9
2023-03-24T13:22:44.529Z,48.9
2023-03-24T13:28:36.788Z,47.6
2023-03-24T13:34:29.030Z,47.6
2023-03-24T13:40:20.970Z,48.9
2023-03-24T13:46:15.033Z,49
2023-03-24T13:52:12.352Z,48.1
2023-03-24T13:58:05.713Z,47.9
2023-03-24T14:03:57.641Z,48
2023-03-24T14:09:49.812Z,48.1
2023-03-24T14:15:41.831Z,49
2023-03-24T14:21:34.804Z,49.5
2023-03-24T14:27:33.770Z,48.7
2023-03-24T14:33:28.077Z,49.5
2023-03-24T14:39:21.484Z,48.6
2023-03-24T14:45:18.174Z,48.7
2023-03-24T14:51:25.070Z,49
2023-03-24T14:57:23.650Z,48.5
2023-03-24T15:03:16.795Z,48.1
2023-03-24T15:09:11.786Z,48.6
2023-03-24T15:15:05.680Z,49.1
2023-03-24T15:21:01.225Z,54.2
2023-03-24T15:26:55.443Z,67.1
2023-03-24T15:32:48.607Z,67.4
2023-03-24T15:38:44.526Z,66
2023-03-24T15:44:41.565Z,63.4
2023-03-24T15:50:35.786Z,60.8
2023-03-24T15:56:30.938Z,59.7
2023-03-24T16:02:24.095Z,56.7
2023-03-24T16:08:19.982Z,56
2023-03-24T16:14:12.693Z,55.3
2023-03-24T16:20:05.134Z,55.1
2023-03-24T16:25:56.034Z,55.2
2023-03-24T16:31:48.781Z,55.4
2023-03-24T16:37:41.519Z,56.2
2023-03-24T16:43:33.838Z,56.9
2023-03-24T16:49:26.992Z,56.1
2023-03-24T16:55:19.513Z,56.3
2023-03-24T17:01:11.588Z,55.5
2023-03-24T17:07:05.688Z,56.5
2023-03-24T17:13:00.223Z,57.4
2023-03-24T17:18:52.134Z,62.5
2023-03-24T17:24:47.546Z,69
2023-03-24T17:30:43.725Z,74.7
2023-03-24T17:36:36.942Z,75.7
2023-03-24T17:42:28.499Z,76.8
2023-03-24T17:48:21.065Z,75.7
2023-03-24T17:54:13.817Z,76.2
2023-03-24T18:00:06.375Z,77.9
2023-03-24T18:05:57.975Z,79.8
2023-03-24T18:11:49.956Z,76.7
2023-03-24T18:17:42.345Z,72.1
2023-03-24T18:23:36.415Z,70.5
2023-03-24T18:29:29.069Z,69.9
2023-03-24T18:35:29.273Z,69.9
2023-03-24T18:41:21.572Z,70.2
2023-03-24T18:47:14.946Z,69.7
2023-03-24T18:53:09.532Z,69.8
2023-03-24T18:59:02.092Z,70
2023-03-24T19:05:00.515Z,69.6
2023-03-24T19:11:03.113Z,70.3
2023-03-24T19:17:03.616Z,69.8
2023-03-24T19:22:58.195Z,70.4
2023-03-24T19:28:51.309Z,70.2
2023-03-24T19:34:46.055Z,71
2023-03-24T19:47:32.311Z,71.3
2023-03-24T19:53:27.172Z,71.6
2023-03-24T19:59:27.668Z,71.9
2023-03-24T20:05:19.952Z,72.1
2023-03-24T20:11:15.047Z,72.4
2023-03-24T20:17:12.232Z,73.6
2023-03-24T20:23:19.073Z,75.4
2023-03-24T20:29:13.323Z,75.9
2023-03-24T20:35:05.281Z,77.4
2023-03-24T20:46:56.996Z,77.3
2023-03-24T20:52:52.530Z,76.9
2023-03-24T20:59:11.006Z,77.7
2023-03-24T21:05:23.725Z,77.8
2023-03-24T21:11:26.779Z,76.6
2023-03-24T21:17:19.613Z,76.7
2023-03-24T21:23:11.054Z,76.8
2023-03-24T21:29:03.947Z,77.1
2023-03-24T21:34:57.746Z,76.5
2023-03-24T21:40:52.883Z,76.6
2023-03-24T21:46:49.316Z,76.9
2023-03-24T21:52:41.565Z,77
2023-03-24T21:58:35.034Z,76.7
2023-03-24T22:04:37.057Z,77.4
2023-03-24T22:10:38.996Z,77.8
2023-03-24T22:17:36.638Z,77.9
2023-03-24T22:23:29.706Z,77.1
2023-03-24T22:29:21.435Z,77.1
2023-03-24T22:35:16.122Z,77.7
2023-03-24T22:41:07.442Z,77.4
2023-03-24T22:47:01.162Z,77.8
2023-03-24T22:52:57.058Z,77.6
2023-03-24T22:58:50.708Z,77.7
2023-03-24T23:04:44.005Z,77.7
2023-03-24T23:10:34.289Z,77.9
2023-03-24T23:16:30.118Z,78
2023-03-24T23:41:41.070Z,76.7
2023-03-24T23:47:35.875Z,76.7
2023-03-24T23:53:35.921Z,77.4
2023-03-24T23:59:31.869Z,77.4
